Time;durP1;ratioP1;P1;durP2;ratioP2;P2;SDS_P1;SDS_P2;PMS_P1;PMS_P2;Temp;Humidity;BMP_temperature;BMP_pressure;BME280_temperature;BME280_humidity;BME280_pressure;Samples;Min_cycle;Max_cycle;Signal;HPM_P1;HPM_P2
2022/06/25 00:01:38;;;;;;;12.10;9.65;;;18.70;99.90;;;;;;4230711;28;20062;-85
2022/06/25 00:03:39;;;;;;;11.93;9.13;;;18.70;99.90;;;;;;4227872;28;20048;-85
2022/06/25 00:05:43;;;;;;;11.70;8.85;;;18.70;99.90;;;;;;4220583;28;20036;-85
2022/06/25 00:07:46;;;;;;;13.07;8.75;;;18.70;99.90;;;;;;4230839;28;20039;-85
2022/06/25 00:09:46;;;;;;;11.98;8.05;;;18.70;99.90;;;;;;4231092;28;20071;-85
2022/06/25 00:14:13;;;;;;;11.02;8.48;;;18.60;99.90;;;;;;4232325;28;20601;-85
2022/06/25 00:16:16;;;;;;;11.82;8.95;;;18.60;99.90;;;;;;4234104;28;20399;-86
2022/06/25 00:18:19;;;;;;;12.00;8.07;;;18.60;99.90;;;;;;4217438;28;20070;-85
2022/06/25 00:20:19;;;;;;;14.40;9.07;;;18.60;99.90;;;;;;4235515;28;20043;-85
2022/06/25 00:22:20;;;;;;;11.07;8.68;;;18.60;99.90;;;;;;4217164;28;20082;-86
2022/06/25 00:24:21;;;;;;;14.15;9.63;;;18.60;99.90;;;;;;4235582;28;20073;-84
2022/06/25 00:26:28;;;;;;;15.27;10.40;;;18.60;99.90;;;;;;4217429;28;20123;-85
2022/06/25 00:28:28;;;;;;;17.10;10.98;;;18.60;99.90;;;;;;4234278;28;20111;-85
2022/06/25 00:30:30;;;;;;;11.55;9.13;;;18.60;99.90;;;;;;4217553;28;20044;-85
2022/06/25 00:32:31;;;;;;;15.63;10.52;;;18.60;99.90;;;;;;4235411;28;20050;-84
2022/06/25 00:34:32;;;;;;;12.32;9.50;;;18.60;99.90;;;;;;4235530;28;20427;-84
2022/06/25 00:36:32;;;;;;;14.30;9.57;;;18.60;99.90;;;;;;4235543;27;20043;-85
2022/06/25 00:38:33;;;;;;;11.82;9.65;;;18.60;99.90;;;;;;4233903;28;20055;-85
2022/06/25 00:40:34;;;;;;;13.23;10.13;;;18.60;99.90;;;;;;4234859;28;20039;-85
2022/06/25 00:42:35;;;;;;;17.20;12.15;;;18.50;99.90;;;;;;4235175;28;20070;-85
2022/06/25 00:44:36;;;;;;;12.70;10.30;;;18.50;99.90;;;;;;4235139;28;20415;-85
2022/06/25 00:46:37;;;;;;;14.48;9.65;;;18.50;99.90;;;;;;4235350;28;20047;-84
2022/06/25 00:48:38;;;;;;;14.00;10.10;;;18.50;99.90;;;;;;4235355;28;20039;-85
2022/06/25 00:50:39;;;;;;;13.68;10.18;;;18.40;99.90;;;;;;4235351;28;20518;-85
2022/06/25 00:52:42;;;;;;;14.07;9.43;;;18.40;99.90;;;;;;4233934;28;20556;-85
2022/06/25 00:54:54;;;;;;;14.05;9.57;;;18.20;99.90;;;;;;4235564;28;20039;-85
2022/06/25 00:56:58;;;;;;;12.13;9.40;;;18.30;99.90;;;;;;4233743;28;20448;-85
2022/06/25 00:59:04;;;;;;;13.20;9.75;;;18.30;99.90;;;;;;4235053;28;20091;-85
2022/06/25 01:01:08;;;;;;;14.10;10.77;;;18.30;99.90;;;;;;4233407;28;20047;-85
2022/06/25 01:03:08;;;;;;;17.02;10.18;;;18.30;99.90;;;;;;4233835;28;20140;-85
2022/06/25 01:05:12;;;;;;;14.13;11.20;;;18.30;99.90;;;;;;4234316;28;20040;-85
2022/06/25 01:07:13;;;;;;;16.77;12.93;;;18.30;99.90;;;;;;4235071;28;20043;-85
2022/06/25 01:09:14;;;;;;;17.60;13.30;;;18.20;99.90;;;;;;4233497;28;20052;-85
2022/06/25 01:11:15;;;;;;;16.55;10.95;;;18.20;99.90;;;;;;4235103;28;20048;-85
2022/06/25 01:13:21;;;;;;;19.67;12.10;;;18.20;99.90;;;;;;4233404;28;20048;-85
2022/06/25 01:15:22;;;;;;;18.67;13.07;;;18.20;99.90;;;;;;4216571;28;20048;-85
2022/06/25 01:17:22;;;;;;;17.75;13.55;;;18.20;99.90;;;;;;4234336;28;20050;-85
2022/06/25 01:19:23;;;;;;;16.77;12.25;;;18.20;99.90;;;;;;4234541;28;20047;-85
2022/06/25 01:21:24;;;;;;;15.75;12.65;;;18.20;99.90;;;;;;4217028;28;20100;-85
2022/06/25 01:23:25;;;;;;;15.85;11.63;;;18.20;99.90;;;;;;4234993;28;20217;-85
2022/06/25 01:25:33;;;;;;;17.52;12.93;;;18.20;99.90;;;;;;4233310;28;20057;-85
2022/06/25 01:27:34;;;;;;;16.30;11.32;;;18.20;99.90;;;;;;4233955;27;20048;-85
2022/06/25 01:29:35;;;;;;;13.93;10.00;;;18.20;99.90;;;;;;4216354;28;20063;-85
2022/06/25 01:31:36;;;;;;;20.35;11.95;;;18.20;99.90;;;;;;4234494;28;20126;-85
2022/06/25 01:33:37;;;;;;;15.38;11.23;;;18.10;99.90;;;;;;4233267;28;20093;-85
2022/06/25 01:35:38;;;;;;;14.60;11.13;;;18.10;99.90;;;;;;4233362;28;20591;-86
2022/06/25 01:37:38;;;;;;;15.73;11.18;;;18.10;99.90;;;;;;4234390;28;20043;-84
2022/06/25 01:39:41;;;;;;;15.77;12.10;;;18.10;99.90;;;;;;4234154;27;20483;-85
2022/06/25 01:41:42;;;;;;;16.55;11.32;;;18.00;99.90;;;;;;4233382;28;20059;-85
2022/06/25 01:43:44;;;;;;;16.67;11.95;;;18.00;99.90;;;;;;4234007;28;20040;-84
2022/06/25 01:45:46;;;;;;;23.00;14.05;;;18.00;99.90;;;;;;4233167;28;20043;-84
2022/06/25 01:47:47;;;;;;;18.55;12.82;;;18.00;99.90;;;;;;4232834;28;20044;-85
2022/06/25 01:49:47;;;;;;;17.48;11.73;;;18.00;99.90;;;;;;4224673;28;20407;-85
2022/06/25 01:51:49;;;;;;;17.48;12.80;;;18.00;99.90;;;;;;4215699;28;20051;-85
2022/06/25 01:53:50;;;;;;;17.27;12.55;;;18.00;99.90;;;;;;4217145;28;20130;-85
2022/06/25 01:55:51;;;;;;;19.67;12.50;;;17.90;99.90;;;;;;4216210;28;20133;-85
2022/06/25 01:57:52;;;;;;;18.77;12.30;;;17.90;99.90;;;;;;4217005;28;20044;-85
2022/06/25 01:59:53;;;;;;;16.95;12.05;;;17.90;99.90;;;;;;4216441;28;20416;-85
2022/06/25 02:01:54;;;;;;;16.80;11.48;;;17.90;99.90;;;;;;4217224;28;20100;-85
2022/06/25 02:03:54;;;;;;;16.85;12.15;;;17.80;99.90;;;;;;4216810;28;20423;-85
2022/06/25 02:05:58;;;;;;;16.30;11.25;;;17.80;99.90;;;;;;4215148;28;20052;-85
2022/06/25 02:07:58;;;;;;;19.23;11.35;;;17.80;99.90;;;;;;4216722;28;20423;-84
2022/06/25 02:09:59;;;;;;;17.30;11.80;;;17.80;99.90;;;;;;4216481;28;20108;-84
2022/06/25 02:12:00;;;;;;;15.68;11.52;;;17.70;99.90;;;;;;4216544;28;20039;-85
2022/06/25 02:14:01;;;;;;;16.73;10.95;;;17.70;99.90;;;;;;4215396;28;20043;-85
2022/06/25 02:16:03;;;;;;;15.52;12.48;;;17.70;99.90;;;;;;4216358;28;20440;-85
2022/06/25 02:18:05;;;;;;;18.73;10.85;;;17.80;99.90;;;;;;4217200;28;20041;-84
2022/06/25 02:20:06;;;;;;;16.65;11.73;;;17.70;99.90;;;;;;4216866;28;20083;-85
2022/06/25 02:22:07;;;;;;;15.90;11.40;;;17.60;99.90;;;;;;4216707;28;20050;-85
2022/06/25 02:24:07;;;;;;;15.00;11.15;;;17.60;99.90;;;;;;4216723;28;20563;-85
2022/06/25 02:26:08;;;;;;;14.50;10.57;;;17.60;99.90;;;;;;4215201;28;20059;-85
2022/06/25 02:28:10;;;;;;;16.67;11.40;;;17.60;99.90;;;;;;4214928;28;20052;-85
2022/06/25 02:30:11;;;;;;;13.82;9.98;;;17.60;99.90;;;;;;4216740;28;20044;-85
2022/06/25 02:32:12;;;;;;;12.40;9.80;;;17.60;99.90;;;;;;4216714;28;20040;-85
2022/06/25 02:34:13;;;;;;;15.75;9.98;;;17.60;99.90;;;;;;4216963;28;20046;-85
2022/06/25 02:36:14;;;;;;;17.00;10.98;;;17.50;99.90;;;;;;4216965;28;20088;-85
2022/06/25 02:38:15;;;;;;;16.13;10.75;;;17.60;99.90;;;;;;4216453;28;20089;-85
2022/06/25 02:40:16;;;;;;;14.82;9.50;;;17.50;99.90;;;;;;4215701;28;20509;-85
2022/06/25 02:42:16;;;;;;;14.95;9.32;;;17.50;99.90;;;;;;4216075;28;20093;-85
2022/06/25 02:44:17;;;;;;;12.70;9.65;;;17.50;99.90;;;;;;4198282;28;20052;-85
2022/06/25 02:46:18;;;;;;;13.82;10.32;;;17.40;99.90;;;;;;4215006;28;20044;-84
2022/06/25 02:48:19;;;;;;;12.00;9.02;;;17.40;99.90;;;;;;4216253;28;20374;-85
2022/06/25 02:50:20;;;;;;;15.95;9.52;;;17.40;99.90;;;;;;4215677;28;20044;-83
2022/06/25 02:52:21;;;;;;;14.57;10.50;;;17.40;99.90;;;;;;4216648;28;20044;-84
2022/06/25 02:54:22;;;;;;;14.00;9.45;;;17.40;99.90;;;;;;4216234;28;20072;-85
2022/06/25 02:58:55;;;;;;;14.32;9.70;;;17.40;99.90;;;;;;4215822;28;20519;-85
2022/06/25 03:00:55;;;;;;;14.20;9.90;;;17.40;99.90;;;;;;4215279;28;20112;-85
2022/06/25 03:02:56;;;;;;;11.50;8.77;;;17.40;99.90;;;;;;4216074;28;20473;-85
2022/06/25 03:04:57;;;;;;;15.75;10.25;;;17.40;99.90;;;;;;4215467;28;20052;-85
2022/06/25 03:06:58;;;;;;;15.07;9.05;;;17.40;99.90;;;;;;4216046;28;20040;-85
2022/06/25 03:08:59;;;;;;;14.27;9.57;;;17.40;99.90;;;;;;4215824;28;20044;-85
2022/06/25 03:11:00;;;;;;;12.80;8.80;;;17.40;99.90;;;;;;4215822;28;20048;-85
2022/06/25 03:13:00;;;;;;;11.40;8.77;;;17.40;99.90;;;;;;4214926;28;20107;-85
2022/06/25 03:15:01;;;;;;;13.05;9.68;;;17.30;99.90;;;;;;4215814;28;20040;-84
2022/06/25 03:17:02;;;;;;;11.75;8.88;;;17.30;99.90;;;;;;4215862;28;20036;-85
2022/06/25 03:19:03;;;;;;;12.38;8.98;;;17.30;99.90;;;;;;4215760;28;20072;-85
2022/06/25 03:21:04;;;;;;;13.77;8.57;;;17.30;99.90;;;;;;4214450;28;20048;-85
2022/06/25 03:23:05;;;;;;;10.70;9.10;;;17.30;99.90;;;;;;4215962;28;20048;-85
2022/06/25 03:25:06;;;;;;;10.88;8.52;;;17.20;99.90;;;;;;4215026;28;20051;-86
2022/06/25 03:27:07;;;;;;;12.10;8.40;;;17.20;99.90;;;;;;4215415;28;20052;-86
2022/06/25 03:29:09;;;;;;;11.63;8.70;;;17.20;99.90;;;;;;4214716;28;20043;-85
2022/06/25 03:31:10;;;;;;;15.43;9.25;;;17.20;99.90;;;;;;4215571;28;20052;-84
2022/06/25 03:33:12;;;;;;;15.10;9.77;;;17.20;99.90;;;;;;4215605;28;20123;-85
2022/06/25 03:35:13;;;;;;;14.05;8.85;;;17.20;99.90;;;;;;4215365;28;20032;-85
2022/06/25 03:37:14;;;;;;;10.52;7.82;;;17.20;99.90;;;;;;4214916;28;20124;-85
2022/06/25 03:39:14;;;;;;;11.52;8.40;;;17.20;99.90;;;;;;4215700;28;20504;-85
2022/06/25 03:41:33;;;;;;;15.23;8.95;;;17.20;99.90;;;;;;4215593;28;20040;-85
2022/06/25 03:43:34;;;;;;;12.35;8.85;;;17.30;99.90;;;;;;4215906;28;20044;-85
2022/06/25 03:45:36;;;;;;;12.93;8.13;;;17.40;99.90;;;;;;4215606;28;20135;-85
2022/06/25 03:47:36;;;;;;;12.07;8.45;;;17.30;99.90;;;;;;4214929;28;20071;-85
2022/06/25 03:49:38;;;;;;;10.43;7.82;;;17.30;99.90;;;;;;4213678;28;20040;-85
2022/06/25 03:51:39;;;;;;;11.23;8.43;;;17.30;99.90;;;;;;4214724;28;20502;-85
2022/06/25 03:53:40;;;;;;;12.30;8.40;;;17.30;99.90;;;;;;4214827;28;20086;-85
2022/06/25 03:55:40;;;;;;;10.73;8.38;;;17.30;99.90;;;;;;4215178;28;20512;-85
2022/06/25 03:57:41;;;;;;;14.27;8.10;;;17.30;99.90;;;;;;4214626;28;20078;-85
2022/06/25 03:59:42;;;;;;;10.32;8.57;;;17.30;99.90;;;;;;4213745;28;20131;-85
2022/06/25 04:01:43;;;;;;;10.55;8.07;;;17.30;99.90;;;;;;4215106;28;20044;-85
2022/06/25 04:03:44;;;;;;;13.10;8.38;;;17.30;99.90;;;;;;4213613;28;20048;-84
2022/06/25 04:05:46;;;;;;;12.48;8.25;;;17.30;99.90;;;;;;4214669;28;20135;-86
2022/06/25 04:07:46;;;;;;;13.57;8.38;;;17.20;99.90;;;;;;4215105;28;20055;-85
2022/06/25 04:09:47;;;;;;;11.70;7.80;;;17.20;99.90;;;;;;4214815;28;20052;-84
2022/06/25 04:11:49;;;;;;;11.43;8.70;;;17.20;99.90;;;;;;4214495;28;20097;-85
2022/06/25 04:13:50;;;;;;;10.35;7.93;;;17.20;99.90;;;;;;4214920;28;20077;-84
2022/06/25 04:15:51;;;;;;;13.40;8.13;;;17.20;99.90;;;;;;4214851;28;20063;-85
2022/06/25 04:17:52;;;;;;;12.77;8.27;;;17.20;99.90;;;;;;4214689;28;20052;-85
2022/06/25 04:19:52;;;;;;;11.38;7.53;;;17.30;99.90;;;;;;4214710;28;20399;-85
2022/06/25 04:21:53;;;;;;;9.85;7.93;;;17.20;99.90;;;;;;4213084;28;20044;-84
2022/06/25 04:23:54;;;;;;;11.70;7.90;;;17.20;99.90;;;;;;4212646;28;20051;-85
2022/06/25 04:25:55;;;;;;;10.15;7.55;;;17.30;99.90;;;;;;4211407;28;20060;-85
2022/06/25 04:30:16;;;;;;;10.70;6.57;;;17.30;99.90;;;;;;4212968;28;20488;-85
2022/06/25 04:32:16;;;;;;;9.90;6.50;;;17.30;99.90;;;;;;4210935;28;20127;-85
2022/06/25 04:34:18;;;;;;;10.48;6.78;;;17.30;99.90;;;;;;4212926;28;20048;-85
2022/06/25 04:36:19;;;;;;;8.90;6.25;;;17.30;99.90;;;;;;4216464;28;20048;-85
2022/06/25 04:38:21;;;;;;;10.98;6.93;;;17.30;99.90;;;;;;4213428;28;20078;-85
2022/06/25 04:40:22;;;;;;;11.73;6.97;;;17.30;99.90;;;;;;4214322;28;20089;-85
2022/06/25 04:42:23;;;;;;;8.88;6.80;;;17.30;99.90;;;;;;4214364;28;20072;-85
2022/06/25 04:44:23;;;;;;;10.82;7.03;;;17.40;99.90;;;;;;4214446;28;20400;-85
2022/06/25 04:46:24;;;;;;;7.88;6.35;;;17.40;99.90;;;;;;4214315;28;20040;-85
2022/06/25 04:48:24;;;;;;;8.98;6.03;;;17.40;99.90;;;;;;4213250;28;20078;-85
2022/06/25 04:50:25;;;;;;;8.50;6.28;;;17.50;99.90;;;;;;4213534;28;20100;-85
2022/06/25 04:52:26;;;;;;;8.43;5.90;;;17.50;99.90;;;;;;4214411;28;20075;-85
2022/06/25 04:54:27;;;;;;;8.70;6.35;;;17.50;99.90;;;;;;4214113;28;20712;-85
2022/06/25 04:56:29;;;;;;;8.63;6.55;;;17.50;99.90;;;;;;4213236;28;20101;-85
2022/06/25 04:58:30;;;;;;;9.55;6.25;;;17.60;99.90;;;;;;4214929;28;20040;-86
2022/06/25 05:00:30;;;;;;;9.50;5.82;;;17.60;99.90;;;;;;4214450;28;20044;-85
2022/06/25 05:02:31;;;;;;;9.43;6.05;;;17.60;99.90;;;;;;4214489;28;20044;-85
2022/06/25 05:04:32;;;;;;;8.30;5.63;;;17.60;99.90;;;;;;4217999;28;20047;-85
2022/06/25 05:06:32;;;;;;;8.07;5.70;;;17.70;99.90;;;;;;4217560;28;20123;-85
2022/06/25 05:08:33;;;;;;;9.38;6.03;;;17.70;99.90;;;;;;4217784;28;20035;-85
2022/06/25 05:10:34;;;;;;;7.53;6.10;;;17.70;99.90;;;;;;4216336;28;20044;-85
2022/06/25 05:14:54;;;;;;;7.80;6.15;;;17.80;99.90;;;;;;4217733;28;20059;-85
2022/06/25 05:16:55;;;;;;;8.63;6.20;;;17.90;99.90;;;;;;4217834;28;20438;-87
2022/06/25 05:18:56;;;;;;;7.70;5.75;;;17.90;99.90;;;;;;4218067;28;20051;-85
2022/06/25 05:20:57;;;;;;;7.63;5.65;;;17.90;99.90;;;;;;4217218;28;20048;-85
2022/06/25 05:22:57;;;;;;;7.03;5.60;;;17.90;99.90;;;;;;4217439;28;20396;-85
2022/06/25 05:24:58;;;;;;;7.63;5.93;;;18.00;99.90;;;;;;4217558;28;20377;-85
2022/06/25 05:26:59;;;;;;;7.00;5.32;;;18.00;99.90;;;;;;4215972;28;20075;-85
2022/06/25 05:28:59;;;;;;;9.18;5.93;;;18.10;99.90;;;;;;4216993;28;20052;-85
2022/06/25 05:31:00;;;;;;;8.50;5.63;;;18.10;99.90;;;;;;4216918;28;20374;-85
2022/06/25 05:33:01;;;;;;;7.47;5.50;;;18.20;99.90;;;;;;4216358;28;20153;-85
2022/06/25 05:35:04;;;;;;;11.52;5.70;;;18.20;99.90;;;;;;4217067;28;20048;-85
2022/06/25 05:37:05;;;;;;;6.47;4.95;;;18.30;99.90;;;;;;4216740;28;20052;-85
2022/06/25 05:39:05;;;;;;;7.13;5.47;;;18.30;99.90;;;;;;4215299;28;20552;-85
2022/06/25 05:41:09;;;;;;;6.22;5.30;;;18.40;99.90;;;;;;4215670;28;20047;-85
2022/06/25 05:43:10;;;;;;;12.30;5.22;;;18.40;99.90;;;;;;4217174;28;20051;-85
2022/06/25 05:45:11;;;;;;;8.75;5.15;;;18.40;99.90;;;;;;4216928;28;20044;-86
2022/06/25 05:47:12;;;;;;;7.35;5.50;;;18.50;99.90;;;;;;4227221;28;20040;-85
2022/06/25 05:49:13;;;;;;;8.35;5.75;;;18.50;99.90;;;;;;4217143;28;20605;-86
2022/06/25 05:51:13;;;;;;;7.07;5.40;;;18.60;99.90;;;;;;4215592;28;20237;-85
2022/06/25 05:53:14;;;;;;;8.73;5.78;;;18.60;99.90;;;;;;4216712;28;20052;-85
2022/06/25 05:55:15;;;;;;;10.40;5.93;;;18.60;99.90;;;;;;4217435;28;20055;-85
2022/06/25 05:57:16;;;;;;;8.73;5.60;;;18.70;99.90;;;;;;4217397;28;20103;-84
2022/06/25 05:59:16;;;;;;;11.98;4.90;;;18.70;99.90;;;;;;4216005;28;20047;-85
2022/06/25 06:01:17;;;;;;;8.50;5.32;;;18.70;99.90;;;;;;4215921;28;20073;-84
2022/06/25 06:03:18;;;;;;;8.15;4.95;;;18.80;99.90;;;;;;4215514;28;20498;-85
2022/06/25 06:05:19;;;;;;;9.80;5.40;;;18.90;99.90;;;;;;4232228;28;20094;-85
2022/06/25 06:07:20;;;;;;;10.45;5.00;;;18.90;99.90;;;;;;4234069;27;20040;-85
2022/06/25 06:09:21;;;;;;;8.43;5.03;;;18.90;99.90;;;;;;4233732;28;20642;-85
2022/06/25 06:11:22;;;;;;;8.50;4.80;;;19.00;99.90;;;;;;4232863;28;20498;-86
2022/06/25 06:13:22;;;;;;;6.13;4.85;;;19.00;99.90;;;;;;4231592;28;20584;-85
2022/06/25 06:15:23;;;;;;;10.70;5.20;;;19.10;99.90;;;;;;4232436;28;20035;-85
2022/06/25 06:17:24;;;;;;;8.43;4.68;;;19.10;99.90;;;;;;4233959;28;20050;-85
2022/06/25 06:19:26;;;;;;;8.70;5.18;;;19.20;99.90;;;;;;4232046;28;20083;-85
2022/06/25 06:21:26;;;;;;;6.97;4.80;;;19.30;99.90;;;;;;4233557;28;20118;-85
2022/06/25 06:23:27;;;;;;;10.05;5.05;;;19.30;99.90;;;;;;4233285;28;20465;-85
2022/06/25 06:25:28;;;;;;;13.25;5.65;;;19.30;99.90;;;;;;4233481;28;20511;-85
2022/06/25 06:27:29;;;;;;;7.40;4.60;;;19.40;99.90;;;;;;4231040;28;20073;-85
2022/06/25 06:29:30;;;;;;;10.05;4.90;;;19.40;99.90;;;;;;4233444;28;20040;-85
2022/06/25 06:31:31;;;;;;;11.57;4.75;;;19.50;99.90;;;;;;4233014;28;20039;-85
2022/06/25 06:33:32;;;;;;;6.00;4.05;;;19.50;99.90;;;;;;4215100;28;20071;-85
2022/06/25 06:35:32;;;;;;;6.47;4.68;;;19.50;99.90;;;;;;4233118;28;20566;-85
2022/06/25 06:37:33;;;;;;;6.30;4.55;;;19.60;99.90;;;;;;4233510;28;20043;-85
2022/06/25 06:39:34;;;;;;;11.10;4.10;;;19.60;99.90;;;;;;4232520;28;20110;-85
2022/06/25 06:41:35;;;;;;;8.57;4.55;;;19.60;99.90;;;;;;4200944;28;20105;-85
2022/06/25 06:43:36;;;;;;;10.68;4.50;;;19.70;99.90;;;;;;4214903;28;20087;-85
2022/06/25 06:45:37;;;;;;;7.57;5.30;;;19.70;99.90;;;;;;4215166;28;20048;-85
2022/06/25 06:47:38;;;;;;;9.85;4.50;;;19.70;99.90;;;;;;4215159;28;20051;-85
2022/06/25 06:49:39;;;;;;;6.88;4.38;;;19.80;99.90;;;;;;4198105;28;20078;-84
2022/06/25 06:51:40;;;;;;;10.00;4.72;;;19.80;99.90;;;;;;4215677;28;20076;-85
2022/06/25 06:53:41;;;;;;;9.88;4.65;;;19.80;99.90;;;;;;4214750;28;20051;-86
2022/06/25 06:55:42;;;;;;;9.55;4.43;;;19.80;99.90;;;;;;4217053;28;20484;-85
2022/06/25 06:57:43;;;;;;;5.82;4.28;;;19.90;99.90;;;;;;4216374;28;20443;-86
2022/06/25 06:59:44;;;;;;;6.88;4.35;;;20.00;99.90;;;;;;4216454;28;20052;-86
2022/06/25 07:01:44;;;;;;;9.75;4.00;;;20.00;99.90;;;;;;4215785;28;20097;-86
2022/06/25 07:03:45;;;;;;;6.95;4.38;;;20.10;99.90;;;;;;4216204;28;20146;-87
2022/06/25 07:05:48;;;;;;;7.65;4.22;;;20.20;99.90;;;;;;4216090;28;20036;-85
2022/06/25 07:07:49;;;;;;;9.93;5.05;;;20.30;99.90;;;;;;4215522;28;20050;-84
2022/06/25 07:10:10;;;;;;;7.28;4.00;;;20.30;99.90;;;;;;4217374;28;20131;-85
2022/06/25 07:12:10;;;;;;;8.45;4.10;;;20.20;99.90;;;;;;4213986;28;20047;-85
2022/06/25 07:14:13;;;;;;;7.50;4.18;;;20.30;99.90;;;;;;4215922;28;20044;-85
2022/06/25 07:16:14;;;;;;;7.82;3.97;;;20.40;99.90;;;;;;4225173;28;20044;-86
2022/06/25 07:18:15;;;;;;;5.63;3.55;;;20.40;99.90;;;;;;4229087;28;20040;-86
2022/06/25 07:20:15;;;;;;;6.93;3.38;;;20.50;99.90;;;;;;4227135;28;20068;-85
2022/06/25 07:22:16;;;;;;;6.47;3.60;;;20.60;99.90;;;;;;4214321;28;20376;-85
2022/06/25 07:24:17;;;;;;;6.47;4.00;;;20.60;99.90;;;;;;4219865;28;20046;-85
2022/06/25 07:26:19;;;;;;;7.55;3.97;;;20.70;99.90;;;;;;4225030;28;20047;-85
2022/06/25 07:28:20;;;;;;;5.38;3.38;;;20.70;99.90;;;;;;4222219;28;20050;-85
2022/06/25 07:30:21;;;;;;;7.75;3.40;;;20.80;99.90;;;;;;4218834;28;20075;-85
2022/06/25 07:32:24;;;;;;;5.93;3.75;;;20.90;99.90;;;;;;4228901;28;20051;-85
2022/06/25 07:34:25;;;;;;;6.78;3.28;;;21.00;99.90;;;;;;4222654;28;20052;-86
2022/06/25 07:36:26;;;;;;;7.45;3.42;;;21.00;99.90;;;;;;4229326;28;20035;-86
2022/06/25 07:38:26;;;;;;;6.60;3.95;;;21.10;99.90;;;;;;4231573;28;20114;-86
2022/06/25 07:40:28;;;;;;;5.30;3.60;;;21.20;99.90;;;;;;4223260;28;20044;-86
2022/06/25 07:42:32;;;;;;;4.97;3.13;;;21.20;99.90;;;;;;4223482;28;20429;-86
2022/06/25 07:44:32;;;;;;;4.85;3.47;;;21.30;99.90;;;;;;4211615;28;20051;-85
2022/06/25 07:46:33;;;;;;;7.13;3.42;;;21.30;99.90;;;;;;4216604;28;20056;-85
2022/06/25 07:48:35;;;;;;;4.88;3.05;;;21.30;99.90;;;;;;4220782;28;20043;-85
2022/06/25 07:52:55;;;;;;;8.27;3.17;;;21.40;99.90;;;;;;4226943;28;20036;-85
2022/06/25 07:54:56;;;;;;;6.72;3.50;;;21.40;99.90;;;;;;4218558;28;20031;-85
2022/06/25 07:56:58;;;;;;;6.78;3.28;;;21.50;99.90;;;;;;4230438;28;20050;-86
2022/06/25 07:58:59;;;;;;;8.20;2.97;;;21.60;99.90;;;;;;4228666;28;20086;-86
2022/06/25 08:01:00;;;;;;;2.88;2.22;;;21.60;99.90;;;;;;4212202;28;20044;-86
2022/06/25 08:03:01;;;;;;;4.20;2.42;;;21.70;99.90;;;;;;4229837;28;20043;-85
2022/06/25 08:05:02;;;;;;;5.38;2.80;;;21.80;99.90;;;;;;4228947;28;20051;-86
2022/06/25 08:07:03;;;;;;;5.03;2.47;;;21.80;99.90;;;;;;4213373;28;20048;-85
2022/06/25 08:09:07;;;;;;;5.40;2.85;;;21.90;99.90;;;;;;4212750;28;20048;-85
2022/06/25 08:11:09;;;;;;;4.68;2.40;;;21.90;99.90;;;;;;4215204;28;20047;-85
2022/06/25 08:13:09;;;;;;;3.70;1.90;;;21.90;99.90;;;;;;4227486;28;20085;-85
2022/06/25 08:15:12;;;;;;;5.45;2.40;;;22.00;99.90;;;;;;4215135;28;20036;-83
2022/06/25 08:17:13;;;;;;;8.50;2.30;;;22.00;99.90;;;;;;4218190;28;20115;-85
2022/06/25 08:19:14;;;;;;;2.55;1.80;;;22.00;99.90;;;;;;4222900;28;20488;-84
2022/06/25 08:21:15;;;;;;;3.05;2.05;;;22.10;99.90;;;;;;4231495;28;20097;-84
2022/06/25 08:23:17;;;;;;;4.50;2.25;;;22.20;99.90;;;;;;4231870;28;20044;-84
2022/06/25 08:25:17;;;;;;;2.83;2.05;;;22.30;99.00;;;;;;4231174;28;20420;-85
2022/06/25 08:27:20;;;;;;;4.65;1.70;;;22.30;99.50;;;;;;4228845;28;20059;-87
2022/06/25 08:29:20;;;;;;;7.40;2.03;;;22.40;98.50;;;;;;4228542;28;20220;-86
2022/06/25 08:31:24;;;;;;;1.73;1.50;;;22.50;99.00;;;;;;4223987;28;20048;-85
2022/06/25 08:33:25;;;;;;;6.22;1.75;;;22.60;98.70;;;;;;4213098;28;20055;-86
2022/06/25 08:35:28;;;;;;;2.70;1.70;;;22.60;98.60;;;;;;4212859;28;20043;-87
2022/06/25 08:37:29;;;;;;;4.35;1.63;;;22.60;96.80;;;;;;4217536;28;20072;-87
2022/06/25 08:39:30;;;;;;;4.78;2.08;;;22.60;97.70;;;;;;4216088;28;20043;-85
2022/06/25 08:41:31;;;;;;;3.33;1.95;;;22.70;97.60;;;;;;4214738;28;20070;-85
2022/06/25 08:43:32;;;;;;;4.28;1.80;;;22.80;97.70;;;;;;4223502;28;20127;-84
2022/06/25 08:45:33;;;;;;;2.55;1.50;;;22.90;97.80;;;;;;4222634;28;20043;-85
2022/06/25 08:47:42;;;;;;;8.75;1.67;;;23.10;96.40;;;;;;4214986;28;20064;-83
2022/06/25 08:49:43;;;;;;;3.35;1.45;;;23.10;96.60;;;;;;4198031;28;20485;-83
2022/06/25 08:51:45;;;;;;;2.45;1.48;;;23.10;96.80;;;;;;4215894;28;20040;-84
2022/06/25 08:53:48;;;;;;;5.32;0.98;;;23.20;96.70;;;;;;4215531;28;20044;-84
2022/06/25 08:55:49;;;;;;;3.65;1.15;;;23.30;96.00;;;;;;4217579;28;20040;-83
2022/06/25 08:57:50;;;;;;;4.32;1.23;;;23.20;95.20;;;;;;4215844;28;20043;-84
2022/06/25 08:59:51;;;;;;;3.58;1.15;;;23.20;95.50;;;;;;4214190;28;20123;-84
2022/06/25 09:01:52;;;;;;;3.58;1.33;;;23.10;93.80;;;;;;4217886;28;20063;-84
2022/06/25 09:03:53;;;;;;;7.82;1.50;;;23.10;93.30;;;;;;4221320;28;20042;-84
2022/06/25 09:05:55;;;;;;;8.10;1.50;;;22.90;93.30;;;;;;4234421;28;20082;-84
2022/06/25 09:07:57;;;;;;;4.70;1.38;;;22.90;93.20;;;;;;4229426;27;20500;-84
2022/06/25 09:09:58;;;;;;;3.05;1.23;;;22.80;94.20;;;;;;4216834;28;20082;-84
2022/06/25 09:12:05;;;;;;;2.67;1.15;;;22.80;94.40;;;;;;4216961;28;20036;-85
2022/06/25 09:14:29;;;;;;;1.52;1.25;;;22.90;94.30;;;;;;4224195;28;20509;-85
2022/06/25 09:16:30;;;;;;;4.50;1.73;;;22.90;92.60;;;;;;4233877;28;20047;-85
2022/06/25 09:18:35;;;;;;;2.33;1.40;;;23.00;94.40;;;;;;4229352;28;20130;-85
2022/06/25 09:20:54;;;;;;;4.95;1.50;;;23.10;94.50;;;;;;4213280;28;20093;-86
2022/06/25 09:23:02;;;;;;;4.85;2.03;;;23.10;93.80;;;;;;4231883;28;20044;-85
2022/06/25 09:25:04;;;;;;;3.33;1.83;;;23.30;94.60;;;;;;4213249;28;20073;-85
2022/06/25 09:27:04;;;;;;;2.38;1.42;;;23.30;94.30;;;;;;4232276;28;20044;-85
2022/06/25 09:29:05;;;;;;;3.83;1.33;;;23.20;93.40;;;;;;4230724;28;20043;-85
2022/06/25 09:31:07;;;;;;;2.83;1.23;;;23.10;93.30;;;;;;4231006;28;20057;-85
2022/06/25 09:33:07;;;;;;;2.20;1.08;;;23.10;93.30;;;;;;4230400;28;20553;-85
2022/06/25 09:35:10;;;;;;;3.88;1.40;;;23.00;91.20;;;;;;4217650;28;20101;-85
2022/06/25 09:37:21;;;;;;;2.45;1.42;;;22.90;92.80;;;;;;4215928;28;20489;-85
2022/06/25 09:39:39;;;;;;;3.03;1.15;;;22.90;92.60;;;;;;4215264;28;20059;-85
2022/06/25 09:41:50;;;;;;;2.38;1.10;;;22.90;92.60;;;;;;4214916;28;20056;-85
2022/06/25 09:43:52;;;;;;;5.85;1.25;;;22.90;91.70;;;;;;4214928;28;20141;-85
2022/06/25 09:45:55;;;;;;;2.50;0.98;;;23.10;91.60;;;;;;4214651;28;20072;-85
2022/06/25 09:47:56;;;;;;;2.78;1.13;;;23.20;92.00;;;;;;4212846;28;20178;-85
2022/06/25 09:50:04;;;;;;;5.57;1.63;;;23.50;91.10;;;;;;4215056;28;20043;-85
2022/06/25 09:52:06;;;;;;;2.55;1.25;;;23.60;91.30;;;;;;4215015;28;20157;-85
2022/06/25 09:54:06;;;;;;;2.33;1.10;;;23.70;91.50;;;;;;4226383;28;20051;-86
2022/06/25 09:56:08;;;;;;;4.82;1.73;;;23.90;92.00;;;;;;4231825;28;20055;-86
2022/06/25 09:58:09;;;;;;;1.90;0.88;;;24.10;91.90;;;;;;4231900;28;20047;-85
2022/06/25 10:00:11;;;;;;;2.60;1.05;;;24.20;90.70;;;;;;4231973;28;20051;-86
2022/06/25 10:02:12;;;;;;;3.53;1.02;;;24.10;90.30;;;;;;4232101;28;20058;-86
2022/06/25 10:04:14;;;;;;;4.03;1.20;;;24.00;89.80;;;;;;4233337;28;20134;-86
2022/06/25 10:06:16;;;;;;;3.20;1.08;;;24.10;90.30;;;;;;4233279;28;20047;-86
2022/06/25 10:08:18;;;;;;;0.82;0.80;;;24.20;89.80;;;;;;4214990;28;20051;-85
2022/06/25 10:10:20;;;;;;;1.20;0.90;;;24.10;89.50;;;;;;4233289;28;20403;-87
2022/06/25 10:12:21;;;;;;;2.58;1.10;;;24.20;88.20;;;;;;4231307;28;20117;-86
2022/06/25 10:14:22;;;;;;;3.13;1.20;;;24.00;89.80;;;;;;4233451;28;20036;-86
2022/06/25 10:16:26;;;;;;;7.70;1.05;;;24.10;89.10;;;;;;4231501;28;20088;-86
2022/06/25 10:18:28;;;;;;;4.35;1.25;;;24.00;89.70;;;;;;4233910;28;20050;-85
2022/06/25 10:20:31;;;;;;;3.65;1.00;;;24.00;88.90;;;;;;4233017;28;20093;-86
2022/06/25 10:22:32;;;;;;;3.72;1.25;;;23.90;88.30;;;;;;4231640;28;20047;-85
2022/06/25 10:24:34;;;;;;;1.60;1.00;;;24.00;89.10;;;;;;4214721;28;20056;-85
2022/06/25 10:26:36;;;;;;;1.48;0.73;;;24.00;89.30;;;;;;4214851;28;20060;-85
2022/06/25 10:28:37;;;;;;;0.88;0.88;;;24.10;88.40;;;;;;4231372;28;20526;-85
2022/06/25 10:30:49;;;;;;;5.00;1.17;;;24.20;89.00;;;;;;4232626;28;20051;-85
2022/06/25 10:32:50;;;;;;;1.73;1.00;;;24.20;86.40;;;;;;4233263;28;20420;-85
2022/06/25 10:34:56;;;;;;;3.63;0.90;;;24.20;88.00;;;;;;4233246;28;20052;-86
2022/06/25 10:36:59;;;;;;;1.52;0.88;;;24.30;87.70;;;;;;4232862;28;20036;-86
2022/06/25 10:39:21;;;;;;;1.80;0.77;;;24.20;87.50;;;;;;4232897;28;20038;-86
2022/06/25 10:43:45;;;;;;;2.70;0.80;;;24.40;87.00;;;;;;4231310;28;20419;-86